Time;durP1;ratioP1;P1;durP2;ratioP2;P2;SDS_P1;SDS_P2;PMS_P1;PMS_P2;Temp;Humidity;BMP_temperature;BMP_pressure;BME280_temperature;BME280_humidity;BME280_pressure;Samples;Min_cycle;Max_cycle;Signal;HPM_P1;HPM_P2
2022/07/08 00:00:37;;;;;;;3.85;0.90;;;16.80;97.20;;;;;;5027261;28;20074;-38
2022/07/08 00:03:03;;;;;;;3.80;1.00;;;16.80;97.30;;;;;;5028102;28;20476;-34
2022/07/08 00:05:29;;;;;;;3.58;0.93;;;16.80;97.30;;;;;;5025967;28;20037;-34
2022/07/08 00:07:54;;;;;;;5.05;2.53;;;16.70;97.30;;;;;;5028163;28;20359;-34
2022/07/08 00:10:21;;;;;;;5.10;0.90;;;16.60;97.40;;;;;;5027260;28;20350;-35
2022/07/08 00:12:46;;;;;;;3.05;0.80;;;16.60;97.40;;;;;;5026735;28;20442;-34
2022/07/08 00:15:12;;;;;;;3.60;1.00;;;16.60;97.50;;;;;;5027744;28;20029;-34
2022/07/08 00:17:37;;;;;;;2.70;1.38;;;16.60;97.70;;;;;;5027192;28;20649;-34
2022/07/08 00:20:04;;;;;;;1.55;0.80;;;16.60;97.60;;;;;;5026283;28;20076;-33
2022/07/08 00:22:30;;;;;;;4.72;1.10;;;16.60;97.70;;;;;;5027470;28;20029;-35
2022/07/08 00:24:58;;;;;;;2.90;0.80;;;16.50;97.70;;;;;;5026886;28;20029;-34
2022/07/08 00:27:23;;;;;;;3.42;1.10;;;16.50;97.80;;;;;;5026511;28;20136;-34
2022/07/08 00:29:49;;;;;;;3.58;0.90;;;16.40;97.90;;;;;;5027191;28;20041;-32
2022/07/08 00:32:14;;;;;;;3.50;1.10;;;16.40;97.90;;;;;;5026779;28;20473;-34
2022/07/08 00:34:40;;;;;;;3.95;0.98;;;16.40;98.00;;;;;;5025965;28;20500;-33
2022/07/08 00:37:06;;;;;;;3.42;0.80;;;16.40;98.00;;;;;;5026308;28;20070;-33
2022/07/08 00:39:32;;;;;;;4.35;1.10;;;16.40;98.00;;;;;;5026704;28;20504;-33
2022/07/08 00:41:58;;;;;;;5.18;1.13;;;16.30;98.00;;;;;;5026498;28;20327;-33
2022/07/08 00:44:23;;;;;;;3.53;0.70;;;16.30;98.10;;;;;;5026828;28;20021;-33
2022/07/08 00:46:49;;;;;;;4.28;1.00;;;16.20;98.20;;;;;;5026890;28;20045;-34
2022/07/08 00:49:14;;;;;;;3.03;0.80;;;16.20;98.30;;;;;;5026378;28;20424;-35
2022/07/08 00:51:41;;;;;;;3.90;0.88;;;16.20;98.30;;;;;;5026973;28;20025;-34
2022/07/08 00:54:08;;;;;;;5.90;1.33;;;16.20;98.30;;;;;;5026516;28;20409;-36
2022/07/08 00:56:34;;;;;;;3.10;1.00;;;16.20;98.40;;;;;;5024867;28;20029;-34
2022/07/08 00:59:01;;;;;;;3.58;1.00;;;16.20;98.40;;;;;;5026139;28;20358;-33
2022/07/08 01:01:26;;;;;;;2.90;1.00;;;16.20;98.40;;;;;;5020733;28;20067;-33
2022/07/08 01:03:53;;;;;;;3.60;1.00;;;16.20;98.50;;;;;;5025875;28;20085;-33
2022/07/08 01:06:19;;;;;;;3.72;0.80;;;16.20;98.50;;;;;;5026379;28;20121;-34
2022/07/08 01:08:45;;;;;;;2.53;0.90;;;16.20;98.60;;;;;;5025677;28;20783;-34
2022/07/08 01:11:11;;;;;;;1.77;1.10;;;16.20;98.60;;;;;;5026635;28;20056;-34
2022/07/08 01:13:38;;;;;;;2.25;0.65;;;16.20;98.60;;;;;;5026042;28;20035;-33
2022/07/08 01:16:04;;;;;;;3.97;1.00;;;16.20;98.60;;;;;;5026289;28;20028;-33
2022/07/08 01:18:31;;;;;;;3.00;0.70;;;16.20;98.70;;;;;;5022055;28;20035;-33
2022/07/08 01:20:57;;;;;;;2.70;0.80;;;16.20;98.80;;;;;;5026543;28;20095;-35
2022/07/08 01:23:23;;;;;;;6.45;2.00;;;16.20;98.70;;;;;;5025674;28;20030;-36
2022/07/08 01:25:49;;;;;;;4.40;1.20;;;16.10;99.00;;;;;;5026101;28;20703;-35
2022/07/08 01:28:15;;;;;;;2.80;1.10;;;16.10;98.70;;;;;;5025456;28;20029;-34
2022/07/08 01:30:42;;;;;;;4.32;1.02;;;16.10;98.80;;;;;;5025281;28;20036;-34
2022/07/08 01:33:08;;;;;;;3.22;1.15;;;16.10;98.80;;;;;;5025277;28;20018;-33
2022/07/08 01:35:33;;;;;;;5.70;1.20;;;16.00;98.90;;;;;;5025391;28;20025;-33
2022/07/08 01:37:59;;;;;;;3.78;0.82;;;16.00;98.90;;;;;;5025363;28;20034;-33
2022/07/08 01:40:24;;;;;;;2.83;1.02;;;16.00;98.90;;;;;;5025379;28;20037;-33
2022/07/08 01:42:50;;;;;;;3.47;0.93;;;15.90;99.00;;;;;;5026231;28;20022;-34
2022/07/08 01:45:15;;;;;;;3.15;1.15;;;15.90;99.00;;;;;;5024594;28;20029;-33
2022/07/08 01:47:41;;;;;;;4.10;0.90;;;15.80;99.10;;;;;;5025411;28;20499;-33
2022/07/08 01:50:07;;;;;;;2.90;1.10;;;15.80;99.10;;;;;;5026243;28;20035;-33
2022/07/08 01:52:33;;;;;;;7.35;1.55;;;15.80;99.10;;;;;;5024739;28;20044;-33
2022/07/08 01:54:58;;;;;;;4.22;0.90;;;15.90;99.20;;;;;;5025838;28;20512;-34
2022/07/08 01:57:24;;;;;;;3.88;1.23;;;15.90;99.20;;;;;;5025407;28;20033;-33
2022/07/08 01:59:51;;;;;;;3.97;0.98;;;16.00;99.20;;;;;;5024817;28;20087;-33
2022/07/08 02:02:19;;;;;;;4.57;1.20;;;16.00;99.20;;;;;;5025195;28;20194;-33
2022/07/08 02:04:45;;;;;;;3.90;0.80;;;16.00;99.20;;;;;;5024468;28;20014;-34
2022/07/08 02:07:11;;;;;;;3.55;0.90;;;16.00;99.20;;;;;;5025853;28;20559;-33
2022/07/08 02:09:37;;;;;;;3.40;0.90;;;16.00;99.20;;;;;;5024425;28;20549;-34
2022/07/08 02:12:19;;;;;;;2.35;1.23;;;16.00;99.20;;;;;;5025459;28;20029;-35
2022/07/08 02:14:47;;;;;;;4.57;1.00;;;16.00;99.20;;;;;;5028465;28;20472;-32
2022/07/08 02:17:14;;;;;;;4.32;1.02;;;16.00;99.20;;;;;;5009772;28;20308;-33
2022/07/08 02:19:40;;;;;;;6.60;1.52;;;16.00;99.30;;;;;;5022957;28;20022;-34
2022/07/08 02:22:06;;;;;;;2.25;0.80;;;16.00;99.30;;;;;;5029647;28;20073;-34
2022/07/08 02:24:32;;;;;;;4.18;1.02;;;16.00;99.30;;;;;;5029032;28;20329;-33
2022/07/08 02:26:57;;;;;;;2.75;1.10;;;15.90;99.40;;;;;;5028775;28;20045;-33
2022/07/08 02:29:23;;;;;;;2.45;1.10;;;15.80;99.50;;;;;;5029182;28;20021;-33
2022/07/08 02:31:49;;;;;;;5.05;1.23;;;15.80;99.60;;;;;;5029447;28;20025;-34
2022/07/08 02:34:14;;;;;;;3.83;1.20;;;15.70;99.70;;;;;;5027918;28;20144;-33
2022/07/08 02:36:40;;;;;;;4.82;1.00;;;15.60;99.80;;;;;;5029636;28;20071;-34
2022/07/08 02:39:05;;;;;;;3.10;0.98;;;15.60;99.90;;;;;;5029640;28;20377;-33
2022/07/08 02:41:31;;;;;;;4.53;1.05;;;15.50;99.90;;;;;;5027791;28;20521;-33
2022/07/08 02:43:57;;;;;;;3.85;1.00;;;15.50;99.90;;;;;;5029564;28;20083;-34
2022/07/08 02:46:23;;;;;;;4.95;1.30;;;15.50;99.90;;;;;;5028725;28;20389;-35
2022/07/08 02:48:48;;;;;;;2.92;1.10;;;15.40;99.90;;;;;;5028695;28;20546;-34
2022/07/08 02:51:14;;;;;;;3.53;1.23;;;15.40;99.90;;;;;;5029319;28;20061;-34
2022/07/08 02:53:40;;;;;;;4.80;1.10;;;15.50;99.90;;;;;;5028610;28;20021;-33
2022/07/08 02:56:06;;;;;;;6.68;1.25;;;15.40;99.90;;;;;;5028079;28;20025;-33
2022/07/08 02:58:31;;;;;;;4.13;1.35;;;15.40;99.90;;;;;;5028225;28;20075;-34
2022/07/08 03:00:59;;;;;;;6.75;1.55;;;15.30;99.90;;;;;;5028707;28;20034;-33
2022/07/08 03:03:25;;;;;;;3.47;1.83;;;15.30;99.90;;;;;;5027988;28;20111;-34
2022/07/08 03:05:51;;;;;;;4.90;1.20;;;15.30;99.90;;;;;;5028944;28;20029;-34
2022/07/08 03:08:16;;;;;;;3.58;1.10;;;15.20;99.90;;;;;;5027767;28;20029;-34
2022/07/08 03:10:42;;;;;;;5.07;1.33;;;15.20;99.90;;;;;;5028517;28;20091;-34
2022/07/08 03:13:10;;;;;;;5.03;1.40;;;15.10;99.90;;;;;;5028842;28;20037;-35
2022/07/08 03:15:36;;;;;;;3.13;1.30;;;15.10;99.90;;;;;;5027431;28;20108;-34
2022/07/08 03:18:01;;;;;;;4.30;1.35;;;15.10;99.90;;;;;;5029486;28;20447;-34
2022/07/08 03:20:27;;;;;;;3.40;1.13;;;15.10;99.90;;;;;;5028125;28;20083;-34
2022/07/08 03:22:52;;;;;;;3.83;1.17;;;15.00;99.90;;;;;;5027985;28;20028;-33
2022/07/08 03:25:18;;;;;;;5.80;1.33;;;14.90;99.90;;;;;;5027361;28;20030;-34
2022/07/08 03:27:43;;;;;;;2.72;1.00;;;14.90;99.90;;;;;;5028549;28;20036;-34
2022/07/08 03:30:09;;;;;;;3.97;1.05;;;14.90;99.90;;;;;;5027776;28;20021;-34
2022/07/08 03:32:35;;;;;;;4.15;1.10;;;14.90;99.90;;;;;;5027575;28;20420;-34
2022/07/08 03:35:00;;;;;;;4.88;1.42;;;14.80;99.90;;;;;;5028162;28;20030;-34
2022/07/08 03:37:26;;;;;;;4.95;1.38;;;14.80;99.90;;;;;;5027141;28;20033;-34
2022/07/08 03:39:53;;;;;;;2.75;1.20;;;14.80;99.90;;;;;;5028155;28;20025;-34
2022/07/08 03:42:19;;;;;;;5.15;1.40;;;14.70;99.90;;;;;;5027785;28;20033;-33
2022/07/08 03:44:45;;;;;;;8.27;1.50;;;14.70;99.90;;;;;;5027023;28;20033;-36
2022/07/08 03:47:11;;;;;;;4.85;1.33;;;14.70;99.90;;;;;;5027735;28;20646;-35
2022/07/08 03:49:37;;;;;;;3.55;1.10;;;14.70;99.90;;;;;;5027534;28;20033;-34
2022/07/08 03:52:03;;;;;;;6.03;1.35;;;14.70;99.90;;;;;;5026953;28;20029;-34
2022/07/08 03:54:28;;;;;;;5.47;1.48;;;14.60;99.90;;;;;;5027162;28;20112;-34
2022/07/08 03:56:54;;;;;;;4.57;1.33;;;14.60;99.90;;;;;;5027980;28;20376;-34
2022/07/08 03:59:20;;;;;;;7.10;1.60;;;14.60;99.90;;;;;;5026854;28;20021;-33
2022/07/08 04:01:45;;;;;;;5.40;1.60;;;14.60;99.90;;;;;;5027576;28;20156;-34
2022/07/08 04:04:11;;;;;;;5.35;1.60;;;14.60;99.90;;;;;;5027839;28;20172;-35
2022/07/08 04:06:39;;;;;;;6.28;1.33;;;14.60;99.90;;;;;;5026106;28;20029;-35
2022/07/08 04:09:04;;;;;;;3.92;1.50;;;14.60;99.90;;;;;;5026899;28;20021;-34
2022/07/08 04:11:30;;;;;;;4.25;1.30;;;14.50;99.90;;;;;;5025756;28;20397;-34
2022/07/08 04:13:56;;;;;;;3.90;1.38;;;14.50;99.90;;;;;;5027461;28;20049;-34
2022/07/08 04:16:22;;;;;;;6.50;1.63;;;14.50;99.90;;;;;;5027589;28;20092;-34
2022/07/08 04:18:48;;;;;;;3.20;1.23;;;14.50;99.90;;;;;;5026931;28;20087;-35
2022/07/08 04:21:13;;;;;;;4.95;1.50;;;14.50;99.90;;;;;;5027662;28;20446;-35
2022/07/08 04:23:40;;;;;;;5.68;1.58;;;14.50;99.90;;;;;;5026873;28;20029;-35
2022/07/08 04:26:06;;;;;;;6.18;1.50;;;14.50;99.90;;;;;;5026818;28;20033;-32
2022/07/08 04:28:32;;;;;;;3.83;1.55;;;14.60;99.90;;;;;;5026568;28;20018;-33
2022/07/08 04:30:58;;;;;;;4.20;1.50;;;14.60;99.90;;;;;;5027755;28;20038;-34
2022/07/08 04:33:23;;;;;;;5.13;1.77;;;14.60;99.90;;;;;;5026393;28;20014;-33
2022/07/08 04:35:49;;;;;;;4.60;1.58;;;14.50;99.90;;;;;;5027328;28;20032;-34
2022/07/08 04:38:15;;;;;;;5.65;1.50;;;14.50;99.90;;;;;;5025540;28;20033;-35
2022/07/08 04:40:40;;;;;;;5.35;1.63;;;14.50;99.90;;;;;;5026187;28;20071;-34
2022/07/08 04:43:06;;;;;;;3.75;1.60;;;14.50;99.90;;;;;;5027397;28;20033;-34
2022/07/08 04:45:31;;;;;;;4.18;1.67;;;14.50;99.90;;;;;;5026867;28;20030;-35
2022/07/08 04:47:57;;;;;;;7.28;2.00;;;14.50;99.90;;;;;;5026779;28;20034;-33
2022/07/08 04:50:22;;;;;;;9.70;1.50;;;14.50;99.90;;;;;;5026955;28;20022;-34
2022/07/08 04:52:48;;;;;;;6.60;1.67;;;14.50;99.90;;;;;;5026798;28;20448;-34
2022/07/08 04:55:29;;;;;;;7.38;1.70;;;14.50;99.90;;;;;;5026077;28;20074;-34
2022/07/08 04:57:57;;;;;;;4.10;1.40;;;14.50;99.90;;;;;;5027483;28;20025;-33
2022/07/08 05:00:23;;;;;;;5.32;1.48;;;14.50;99.90;;;;;;5026263;28;20021;-34
2022/07/08 05:02:48;;;;;;;3.33;1.40;;;14.50;99.90;;;;;;5026194;28;20502;-33
2022/07/08 05:05:14;;;;;;;5.68;1.45;;;14.60;99.90;;;;;;5026269;28;20455;-33
2022/07/08 05:07:39;;;;;;;6.38;1.30;;;14.60;99.90;;;;;;5025501;28;20041;-34
2022/07/08 05:10:05;;;;;;;3.92;1.52;;;14.60;99.90;;;;;;5026982;28;20414;-35
2022/07/08 05:12:31;;;;;;;3.65;1.30;;;14.60;99.90;;;;;;5025748;28;20033;-34
2022/07/08 05:14:56;;;;;;;3.47;1.30;;;14.70;99.90;;;;;;5026031;28;20124;-34
2022/07/08 05:17:22;;;;;;;4.47;1.20;;;14.80;99.90;;;;;;5026138;28;20510;-35
2022/07/08 05:19:47;;;;;;;5.07;1.27;;;14.80;99.90;;;;;;5025739;28;20032;-34
2022/07/08 05:22:13;;;;;;;4.47;1.83;;;14.80;99.90;;;;;;5025710;28;20033;-34
2022/07/08 05:24:38;;;;;;;3.22;1.33;;;14.90;99.90;;;;;;5025480;28;20037;-35
2022/07/08 05:27:06;;;;;;;4.25;1.50;;;14.90;99.90;;;;;;5026358;28;20033;-34
2022/07/08 05:29:31;;;;;;;5.53;1.65;;;15.00;99.90;;;;;;5025442;28;20030;-34
2022/07/08 05:31:57;;;;;;;3.17;1.30;;;15.00;99.90;;;;;;5025969;28;20538;-33
2022/07/08 05:34:22;;;;;;;2.80;1.25;;;15.10;99.90;;;;;;5011979;28;20100;-34
2022/07/08 05:36:48;;;;;;;3.80;1.45;;;15.10;99.90;;;;;;5015633;28;20064;-35
2022/07/08 05:39:14;;;;;;;4.85;1.40;;;15.10;99.90;;;;;;5005192;28;20026;-34
2022/07/08 05:41:40;;;;;;;3.22;1.30;;;15.20;99.90;;;;;;5017943;28;20152;-35
2022/07/08 05:44:05;;;;;;;5.97;1.40;;;15.20;99.90;;;;;;5004621;28;20489;-34
2022/07/08 05:46:31;;;;;;;3.95;1.10;;;15.30;99.90;;;;;;5014534;28;20037;-35
2022/07/08 05:48:56;;;;;;;4.88;1.20;;;15.30;99.90;;;;;;5007411;28;20665;-34
2022/07/08 05:51:22;;;;;;;4.65;1.30;;;15.30;99.90;;;;;;5010248;28;20029;-35
2022/07/08 05:53:48;;;;;;;5.25;1.50;;;15.40;99.90;;;;;;5024447;28;20041;-35
2022/07/08 05:56:13;;;;;;;3.92;1.30;;;15.40;99.90;;;;;;5020440;28;20045;-34
2022/07/08 05:58:39;;;;;;;3.95;1.00;;;15.50;99.90;;;;;;5016110;28;20022;-34
2022/07/08 06:01:05;;;;;;;3.65;1.48;;;15.50;99.90;;;;;;5022177;28;20259;-35
2022/07/08 06:03:30;;;;;;;2.50;1.00;;;15.60;99.90;;;;;;5013542;28;20045;-34
2022/07/08 06:05:56;;;;;;;3.45;1.10;;;15.60;99.90;;;;;;5023297;28;20077;-34
2022/07/08 06:08:21;;;;;;;5.88;1.55;;;15.70;99.90;;;;;;5013262;28;20127;-34
2022/07/08 06:10:47;;;;;;;4.90;1.35;;;15.80;99.90;;;;;;5024418;28;20371;-34
2022/07/08 06:13:12;;;;;;;6.50;1.77;;;15.80;99.90;;;;;;5012066;28;20462;-34
2022/07/08 06:15:38;;;;;;;6.32;1.58;;;15.90;99.90;;;;;;5024884;28;20053;-35
2022/07/08 06:18:04;;;;;;;5.75;1.33;;;16.10;99.90;;;;;;5011626;28;20049;-35
2022/07/08 06:20:29;;;;;;;3.92;1.00;;;16.30;99.90;;;;;;5024082;28;20025;-33
2022/07/08 06:22:55;;;;;;;4.00;1.38;;;16.40;99.90;;;;;;5013510;28;20157;-37
2022/07/08 06:25:21;;;;;;;4.55;1.45;;;16.60;99.90;;;;;;5022660;28;20132;-34
2022/07/08 06:27:46;;;;;;;3.17;1.10;;;16.80;99.90;;;;;;5016104;28;20121;-34
2022/07/08 06:30:12;;;;;;;6.18;1.23;;;16.90;99.90;;;;;;5020830;28;20195;-34
2022/07/08 06:32:38;;;;;;;4.13;1.05;;;17.00;99.90;;;;;;5017270;28;20429;-34
2022/07/08 06:35:04;;;;;;;4.72;1.30;;;17.10;99.90;;;;;;5018431;28;20022;-33
2022/07/08 06:37:29;;;;;;;3.78;1.00;;;17.20;99.90;;;;;;5019716;28;20472;-34
2022/07/08 06:39:55;;;;;;;4.65;1.35;;;17.20;99.90;;;;;;5015883;28;20527;-34
2022/07/08 06:42:20;;;;;;;6.78;1.30;;;17.30;99.90;;;;;;5023357;28;20036;-34
2022/07/08 06:44:46;;;;;;;4.05;1.17;;;17.30;99.90;;;;;;5013820;28;20022;-36
2022/07/08 06:47:11;;;;;;;4.97;1.20;;;17.30;99.90;;;;;;5022929;28;20473;-38
2022/07/08 06:49:37;;;;;;;3.70;0.90;;;17.30;99.90;;;;;;5016773;28;20116;-34
2022/07/08 06:52:04;;;;;;;5.47;1.33;;;17.40;99.90;;;;;;5005751;28;20073;-34
2022/07/08 06:54:35;;;;;;;7.43;1.40;;;17.40;99.90;;;;;;5016313;28;20105;-34
2022/07/08 06:57:03;;;;;;;5.32;1.30;;;17.40;99.90;;;;;;5005804;28;20121;-34
2022/07/08 06:59:28;;;;;;;4.38;1.42;;;17.30;99.90;;;;;;5016731;28;20034;-35
2022/07/08 07:01:54;;;;;;;3.33;0.98;;;17.30;99.90;;;;;;5025066;28;20477;-35
2022/07/08 07:04:20;;;;;;;3.15;1.08;;;17.30;99.90;;;;;;5017182;28;20096;-35
2022/07/08 07:06:46;;;;;;;6.25;1.40;;;17.40;99.90;;;;;;5027404;28;20042;-34
2022/07/08 07:09:12;;;;;;;8.82;1.48;;;17.50;99.90;;;;;;5018721;28;20026;-34
2022/07/08 07:11:39;;;;;;;4.95;1.00;;;17.60;99.90;;;;;;5025366;28;20082;-35
2022/07/08 07:14:05;;;;;;;5.25;1.40;;;17.60;99.90;;;;;;5021056;28;20014;-35
2022/07/08 07:16:31;;;;;;;3.25;1.23;;;17.60;99.90;;;;;;5021487;28;20047;-34
2022/07/08 07:18:56;;;;;;;4.78;1.33;;;17.70;99.90;;;;;;5024461;28;20026;-34
2022/07/08 07:21:22;;;;;;;2.95;1.27;;;17.70;99.90;;;;;;5019227;28;20120;-34
2022/07/08 07:23:47;;;;;;;4.68;1.40;;;17.70;99.90;;;;;;5027154;28;20068;-33
2022/07/08 07:26:12;;;;;;;3.75;1.30;;;17.80;99.90;;;;;;5016543;28;20132;-34
2022/07/08 07:28:38;;;;;;;6.03;1.40;;;17.70;99.90;;;;;;5025478;28;20045;-35
2022/07/08 07:31:04;;;;;;;5.05;1.20;;;17.80;99.90;;;;;;5017176;28;20018;-35
2022/07/08 07:33:29;;;;;;;5.38;1.40;;;17.80;99.90;;;;;;5026919;28;20034;-35
2022/07/08 07:35:56;;;;;;;6.80;1.20;;;17.80;99.90;;;;;;5015186;28;20116;-36
2022/07/08 07:38:21;;;;;;;2.17;0.90;;;17.80;99.90;;;;;;5027698;28;20030;-34
2022/07/08 07:40:47;;;;;;;5.03;1.30;;;17.90;99.90;;;;;;5014857;28;20045;-35
2022/07/08 07:43:12;;;;;;;3.83;1.10;;;17.90;99.90;;;;;;5027373;28;20527;-35
2022/07/08 07:45:38;;;;;;;6.47;1.35;;;17.90;99.90;;;;;;5017011;28;20041;-35
2022/07/08 07:48:04;;;;;;;5.70;1.50;;;18.00;99.90;;;;;;5026559;28;20028;-36
2022/07/08 07:50:29;;;;;;;5.65;1.92;;;18.00;99.90;;;;;;5018150;28;21165;-35
2022/07/08 07:52:55;;;;;;;5.10;1.20;;;18.10;99.90;;;;;;5023790;28;20022;-35
2022/07/08 07:55:23;;;;;;;4.45;1.30;;;18.10;99.90;;;;;;5021547;28;20064;-35
2022/07/08 07:57:49;;;;;;;4.45;1.23;;;18.10;99.90;;;;;;5020626;28;20029;-35
2022/07/08 08:00:16;;;;;;;4.47;1.73;;;18.10;99.90;;;;;;5022738;28;20104;-34
2022/07/08 08:02:42;;;;;;;3.83;1.45;;;18.10;99.90;;;;;;5019150;28;20416;-35
2022/07/08 08:05:09;;;;;;;4.40;1.08;;;18.10;99.90;;;;;;5025634;28;20555;-34
2022/07/08 08:07:38;;;;;;;3.08;1.20;;;18.00;99.90;;;;;;5016669;28;20120;-34
2022/07/08 08:10:04;;;;;;;3.55;1.08;;;18.00;99.90;;;;;;5026280;28;20036;-35
2022/07/08 08:12:30;;;;;;;1.63;1.17;;;18.00;99.90;;;;;;5014873;28;20029;-35
2022/07/08 08:14:56;;;;;;;4.85;1.45;;;18.00;99.90;;;;;;5027038;28;20041;-36
2022/07/08 08:17:21;;;;;;;4.03;1.10;;;18.00;99.90;;;;;;5015846;28;20021;-34
2022/07/08 08:19:47;;;;;;;2.78;1.02;;;18.00;99.90;;;;;;5027061;28;20381;-35
2022/07/08 08:22:12;;;;;;;2.40;1.00;;;18.10;99.90;;;;;;5014557;28;20112;-35
2022/07/08 08:24:38;;;;;;;3.58;1.02;;;18.20;99.90;;;;;;5026811;28;20399;-36
2022/07/08 08:27:03;;;;;;;6.43;1.40;;;18.20;99.90;;;;;;5015689;28;20044;-34
2022/07/08 08:29:29;;;;;;;6.00;1.20;;;18.40;99.90;;;;;;5025479;28;20018;-34
2022/07/08 08:31:55;;;;;;;3.25;1.27;;;18.50;99.90;;;;;;5018002;28;20175;-35
2022/07/08 08:34:20;;;;;;;3.80;1.10;;;18.60;99.80;;;;;;5023325;28;20365;-34
2022/07/08 08:36:46;;;;;;;4.22;1.20;;;18.70;99.70;;;;;;5021112;28;20037;-35
2022/07/08 08:39:11;;;;;;;5.70;1.10;;;18.90;99.70;;;;;;5018156;28;20075;-35
2022/07/08 08:41:39;;;;;;;4.88;1.20;;;19.00;99.50;;;;;;5023079;28;20045;-35
2022/07/08 08:44:05;;;;;;;2.90;1.13;;;19.10;99.20;;;;;;5018699;28;20022;-35
2022/07/08 08:46:31;;;;;;;4.30;1.10;;;19.10;99.10;;;;;;5024611;28;20479;-35
2022/07/08 08:48:57;;;;;;;4.13;1.10;;;19.20;99.10;;;;;;5016217;28;20435;-35
2022/07/08 08:51:23;;;;;;;4.65;1.42;;;19.30;99.10;;;;;;5024725;28;20628;-35
2022/07/08 08:53:52;;;;;;;4.93;1.30;;;19.50;98.40;;;;;;5015380;28;20021;-35
2022/07/08 08:56:18;;;;;;;3.72;1.08;;;19.50;98.50;;;;;;5026661;28;20040;-35
2022/07/08 08:58:46;;;;;;;3.55;1.65;;;19.60;98.60;;;;;;5025563;28;20036;-34
2022/07/08 09:01:13;;;;;;;2.08;0.80;;;19.60;98.60;;;;;;5026173;28;20329;-34
2022/07/08 09:03:39;;;;;;;3.92;1.10;;;19.70;98.60;;;;;;5026084;28;20111;-34
2022/07/08 09:06:05;;;;;;;4.45;1.23;;;19.80;98.50;;;;;;5027206;28;20033;-35
2022/07/08 09:08:31;;;;;;;1.95;0.90;;;19.80;98.50;;;;;;5025368;28;20025;-35
2022/07/08 09:10:57;;;;;;;2.05;0.90;;;19.90;98.50;;;;;;5026991;28;20022;-34
2022/07/08 09:13:26;;;;;;;1.95;1.00;;;20.00;98.30;;;;;;5025371;28;20059;-34
2022/07/08 09:15:54;;;;;;;3.70;0.98;;;20.10;98.30;;;;;;5025823;28;20030;-34
2022/07/08 09:18:25;;;;;;;3.67;1.00;;;20.30;98.30;;;;;;5026237;28;20021;-36
2022/07/08 09:20:53;;;;;;;2.42;0.80;;;20.50;98.20;;;;;;5025888;28;20033;-35
2022/07/08 09:23:35;;;;;;;2.58;0.90;;;20.60;98.00;;;;;;5025307;28;20037;-34
2022/07/08 09:26:04;;;;;;;2.95;0.90;;;20.80;97.90;;;;;;5026119;28;20041;-34
2022/07/08 09:28:31;;;;;;;2.20;0.88;;;20.90;97.80;;;;;;5024878;28;20108;-35
2022/07/08 09:30:59;;;;;;;3.03;0.98;;;21.00;97.80;;;;;;5026466;28;20366;-34
2022/07/08 09:33:25;;;;;;;1.80;0.80;;;21.10;97.70;;;;;;5025461;28;20499;-34
2022/07/08 09:35:51;;;;;;;3.58;1.20;;;21.20;97.60;;;;;;5026220;28;20061;-35
2022/07/08 09:38:22;;;;;;;3.63;1.48;;;21.30;97.30;;;;;;5025984;28;20543;-35
2022/07/08 09:41:02;;;;;;;2.88;1.20;;;21.30;97.30;;;;;;5015481;28;20519;-36
2022/07/08 09:43:28;;;;;;;3.67;0.80;;;21.20;97.30;;;;;;5024853;28;20465;-35
2022/07/08 09:46:02;;;;;;;4.10;1.00;;;21.10;97.20;;;;;;5015200;28;20523;-35
2022/07/08 09:48:29;;;;;;;3.22;1.08;;;21.10;97.40;;;;;;5025523;28;20025;-35
2022/07/08 09:50:54;;;;;;;3.80;1.17;;;21.10;97.30;;;;;;5025790;28;20031;-36
2022/07/08 09:53:23;;;;;;;2.40;1.05;;;21.00;97.20;;;;;;5024995;28;20025;-35
2022/07/08 09:55:53;;;;;;;4.75;1.25;;;21.00;97.30;;;;;;5011262;28;20447;-34
2022/07/08 09:58:21;;;;;;;1.40;0.80;;;21.10;97.30;;;;;;5025330;28;20094;-36
2022/07/08 10:00:49;;;;;;;2.85;0.80;;;21.10;97.30;;;;;;5025255;28;20021;-35
2022/07/08 10:03:15;;;;;;;2.90;0.85;;;21.20;97.30;;;;;;5024857;28;20049;-34
2022/07/08 10:05:42;;;;;;;3.10;0.90;;;21.20;97.20;;;;;;5024909;28;20519;-35
2022/07/08 10:08:09;;;;;;;1.63;0.80;;;21.20;97.20;;;;;;5026193;28;20037;-33
2022/07/08 10:10:36;;;;;;;2.53;1.10;;;21.30;97.20;;;;;;5024581;28;20053;-34
2022/07/08 10:13:03;;;;;;;4.30;1.20;;;21.40;97.10;;;;;;5026209;28;20026;-35
2022/07/08 10:15:34;;;;;;;4.35;1.00;;;21.50;96.90;;;;;;5025246;28;20040;-34
2022/07/08 10:18:16;;;;;;;5.07;1.17;;;21.60;96.70;;;;;;5024474;28;20053;-34
2022/07/08 10:20:53;;;;;;;2.92;1.17;;;21.80;96.60;;;;;;5025694;28;20360;-34
2022/07/08 10:23:34;;;;;;;2.53;1.00;;;22.10;96.50;;;;;;5025375;28;20029;-33
2022/07/08 10:26:02;;;;;;;3.22;1.48;;;22.30;96.30;;;;;;5024884;28;20030;-35
2022/07/08 10:28:41;;;;;;;2.53;1.17;;;22.30;95.50;;;;;;5025651;28;20056;-35
2022/07/08 10:31:23;;;;;;;2.53;1.35;;;22.30;95.70;;;;;;5025241;28;20071;-35
2022/07/08 10:33:50;;;;;;;5.53;1.35;;;22.30;95.60;;;;;;5005951;28;20033;-34
2022/07/08 10:36:22;;;;;;;2.28;1.00;;;22.30;95.00;;;;;;5022731;28;20053;-35
2022/07/08 10:38:48;;;;;;;3.33;1.25;;;22.20;95.00;;;;;;5028359;28;20033;-34
2022/07/08 10:41:22;;;;;;;3.00;1.00;;;22.20;94.20;;;;;;5028964;28;20037;-37
2022/07/08 10:43:51;;;;;;;2.53;0.93;;;22.00;94.40;;;;;;5028547;28;20075;-35
2022/07/08 10:46:17;;;;;;;1.95;0.93;;;22.00;94.80;;;;;;5027632;28;20033;-36
2022/07/08 10:48:50;;;;;;;5.28;1.60;;;22.00;94.90;;;;;;5028760;28;20022;-36
2022/07/08 10:51:19;;;;;;;4.68;1.45;;;22.00;94.60;;;;;;5028249;28;20048;-35
2022/07/08 10:53:51;;;;;;;2.38;1.10;;;22.00;94.90;;;;;;5026882;28;20032;-38
2022/07/08 10:56:49;;;;;;;1.52;1.00;;;22.10;95.00;;;;;;5028487;28;20025;-35
2022/07/08 10:59:19;;;;;;;1.52;0.90;;;22.20;95.00;;;;;;5022425;28;20037;-36
2022/07/08 11:02:05;;;;;;;2.47;1.20;;;22.20;94.70;;;;;;5028273;28;20033;-34
2022/07/08 11:04:34;;;;;;;3.90;1.45;;;22.20;94.70;;;;;;5028534;28;20046;-34
2022/07/08 11:07:20;;;;;;;3.75;1.27;;;22.20;94.40;;;;;;5027963;28;20036;-34
2022/07/08 11:09:48;;;;;;;2.47;1.15;;;22.10;94.70;;;;;;5028490;28;20091;-34
2022/07/08 11:12:15;;;;;;;4.32;1.30;;;22.10;94.20;;;;;;5028219;28;20163;-36
2022/07/08 11:14:52;;;;;;;3.17;1.38;;;22.10;94.20;;;;;;5027871;28;20026;-35
2022/07/08 11:17:22;;;;;;;2.22;1.10;;;22.10;94.40;;;;;;5028414;28;20129;-34
2022/07/08 11:19:51;;;;;;;4.25;1.23;;;22.20;94.40;;;;;;5028204;28;20061;-34
2022/07/08 11:22:18;;;;;;;1.35;0.98;;;22.20;94.40;;;;;;5027405;28;20021;-34
2022/07/08 11:24:44;;;;;;;2.38;1.17;;;22.30;94.50;;;;;;5028407;28;20987;-35
2022/07/08 11:27:10;;;;;;;3.20;1.05;;;22.50;94.50;;;;;;5028716;28;20087;-35
2022/07/08 11:29:36;;;;;;;2.92;0.88;;;22.60;94.40;;;;;;5027564;28;20026;-34
2022/07/08 11:32:05;;;;;;;2.15;0.90;;;22.70;94.50;;;;;;5028900;28;20075;-36
2022/07/08 11:34:31;;;;;;;2.63;1.10;;;22.80;94.50;;;;;;5027363;28;20071;-34
2022/07/08 11:37:01;;;;;;;1.73;0.80;;;22.80;94.50;;;;;;5028153;28;20021;-36
2022/07/08 11:39:27;;;;;;;1.67;1.10;;;22.90;94.60;;;;;;5028004;28;20388;-33
2022/07/08 11:41:53;;;;;;;3.55;1.17;;;22.90;94.30;;;;;;5028204;28;20025;-34
2022/07/08 11:44:23;;;;;;;4.78;1.02;;;22.90;94.40;;;;;;5027637;28;20068;-35
2022/07/08 11:46:52;;;;;;;1.95;1.17;;;23.00;94.50;;;;;;5027897;28;20113;-35
2022/07/08 11:49:19;;;;;;;2.88;1.10;;;23.10;94.60;;;;;;5027544;28;20087;-33
2022/07/08 11:51:49;;;;;;;5.65;1.73;;;23.10;94.60;;;;;;5027762;28;20025;-35
2022/07/08 11:54:15;;;;;;;2.83;1.10;;;23.20;94.70;;;;;;5027445;28;20033;-35
2022/07/08 11:56:42;;;;;;;2.65;1.10;;;23.30;94.60;;;;;;5027416;28;20428;-35
2022/07/08 11:59:08;;;;;;;2.88;1.05;;;23.30;94.40;;;;;;5027931;28;20018;-35
2022/07/08 12:01:35;;;;;;;1.70;1.25;;;23.30;94.50;;;;;;5027200;28;20036;-34
2022/07/08 12:04:04;;;;;;;3.47;1.00;;;23.40;94.50;;;;;;5027006;28;20148;-34
2022/07/08 12:06:29;;;;;;;3.58;1.30;;;23.60;94.50;;;;;;5027183;28;20474;-33
2022/07/08 12:08:55;;;;;;;4.13;1.45;;;23.70;94.00;;;;;;5027667;28;20774;-36
2022/07/08 12:11:22;;;;;;;3.38;1.63;;;23.70;94.10;;;;;;5027357;28;20416;-35
2022/07/08 12:13:49;;;;;;;2.22;1.20;;;23.70;93.80;;;;;;5027343;28;20101;-35
2022/07/08 12:16:54;;;;;;;2.35;1.10;;;23.70;94.00;;;;;;5027097;28;20024;-35
2022/07/08 12:19:36;;;;;;;5.05;1.40;;;23.70;94.10;;;;;;5018932;28;20045;-34
2022/07/08 12:22:04;;;;;;;3.55;1.10;;;23.80;94.00;;;;;;5027234;28;20029;-34
2022/07/08 12:24:34;;;;;;;2.22;0.70;;;23.90;94.10;;;;;;5026056;28;20106;-35
2022/07/08 12:27:01;;;;;;;2.15;1.30;;;24.00;94.10;;;;;;5027168;28;20069;-34
2022/07/08 12:29:31;;;;;;;2.42;1.10;;;24.10;94.40;;;;;;5026656;28;20033;-35
2022/07/08 12:31:56;;;;;;;2.22;0.85;;;24.20;94.10;;;;;;5026908;28;20492;-36
2022/07/08 12:34:23;;;;;;;1.77;0.88;;;24.30;94.10;;;;;;5026628;28;20029;-35
2022/07/08 12:36:49;;;;;;;1.45;0.80;;;24.40;94.00;;;;;;5027214;28;20060;-34
2022/07/08 12:39:20;;;;;;;3.00;1.13;;;24.40;94.00;;;;;;5026530;28;20047;-35
2022/07/08 12:41:59;;;;;;;1.73;0.85;;;24.50;93.90;;;;;;5027014;28;20060;-35
2022/07/08 12:44:29;;;;;;;3.55;1.10;;;24.40;93.80;;;;;;5027139;28;20044;-34
2022/07/08 12:46:55;;;;;;;3.53;1.20;;;24.40;93.80;;;;;;5026527;28;20124;-34